Terminal Aerodrome Forecast
Issued by NWS

Home | Current Version | Previous Version | Text Only | Print | Product List | Glossary On
Versions: 1 2 3 4 5 6 7 8 9 10 11 12
000
FTUS45 KGGW 162320
TAFOLF
TAF
KOLF 162320Z 1700/1724 27008KT P6SM SKC
     FM170500 24006KT P6SM SKC WS020/27035KT
     FM171100 24007KT P6SM SKC
     FM171700 25012KT P6SM SKC=

USA.gov is the U.S. government's official web portal to all federal, state and local government web resources and services.